Bell Ville, Argentina
Current Conditions -  °F | °C
As of 5:00 AM on Sunday 21 Dec 2014 (Local Time) from SAOC Reporting Station
Broken Clouds Broken Clouds  
Wind Chill: 55°   Ceiling: 10000
Heat Index: 55°   Visibility: 6mi
Dew Point: 45°   Wind: 3mph
Humidity: 67%   Direction: 270°W
Pressure: 29.83"   Gusts: NA
Location:  32.62°S, 62.7°W
Report Text: SAOC 210800Z 27003KT 9999 FEW040 BKN10013/07 Q1010
Loading
Personal Weather Stations






























Interactive Weather Map New forecast layout! Learn more

10-Day Weather Forecast

Advertisements
Track Severe Weather on mobile